Time;durP1;ratioP1;P1;durP2;ratioP2;P2;SDS_P1;SDS_P2;PMS_P1;PMS_P2;Temp;Humidity;BMP_temperature;BMP_pressure;BME280_temperature;BME280_humidity;BME280_pressure;Samples;Min_cycle;Max_cycle;Signal;HPM_P1;HPM_P2
2022/10/27 00:02:21;;;;;;;1.83;0.80;;;;;;;19.59;61.06;101773.19;5044240;28;20032;-41
2022/10/27 00:04:46;;;;;;;2.35;1.00;;;;;;;19.59;60.58;101773.19;5043491;28;20032;-41
2022/10/27 00:07:11;;;;;;;1.30;1.05;;;;;;;19.59;60.94;101767.94;5047260;28;20656;-40
2022/10/27 00:09:36;;;;;;;1.20;0.70;;;;;;;19.58;61.14;101774.97;5052550;28;20428;-40
2022/10/27 00:12:02;;;;;;;1.75;0.75;;;;;;;19.58;60.93;101768.88;5048185;28;20140;-40
2022/10/27 00:14:27;;;;;;;2.08;1.10;;;;;;;19.58;61.05;101766.25;5043668;28;20059;-40
2022/10/27 00:16:54;;;;;;;2.08;0.90;;;;;;;19.58;60.91;101766.25;5049395;28;20107;-40
2022/10/27 00:19:21;;;;;;;2.25;0.93;;;;;;;19.58;60.80;101766.25;5047001;28;20041;-40
2022/10/27 00:21:46;;;;;;;1.25;0.70;;;;;;;19.58;60.79;101768.88;5041068;28;20037;-40
2022/10/27 00:24:12;;;;;;;1.00;0.60;;;;;;;19.58;60.86;101774.16;5045634;28;20103;-40
2022/10/27 00:26:37;;;;;;;1.75;0.93;;;;;;;19.57;60.85;101769.78;5048710;28;20044;-40
2022/10/27 00:29:02;;;;;;;1.35;0.60;;;;;;;19.57;60.96;101777.69;5047661;28;20033;-40
2022/10/27 00:31:28;;;;;;;1.23;0.93;;;;;;;19.57;60.87;101770.66;5044968;28;20052;-40
2022/10/27 00:33:53;;;;;;;1.65;0.98;;;;;;;19.57;60.85;101778.56;5047053;28;20040;-40
2022/10/27 00:36:21;;;;;;;0.95;0.70;;;;;;;19.56;60.94;101773.34;5047750;28;20041;-41
2022/10/27 00:38:46;;;;;;;1.02;0.80;;;;;;;19.56;60.87;101773.34;5047957;28;20044;-40
2022/10/27 00:41:38;;;;;;;1.60;0.60;;;;;;;19.57;60.85;101777.69;5043739;28;20029;-40
2022/10/27 00:44:25;;;;;;;1.45;0.75;;;;;;;19.55;60.84;101775.09;5051166;28;20053;-40
2022/10/27 00:46:50;;;;;;;1.63;1.00;;;;;;;19.56;60.78;101776.81;5044586;28;20047;-40
2022/10/27 00:49:21;;;;;;;0.82;0.60;;;;;;;19.56;60.93;101782.09;5047055;28;20048;-40
2022/10/27 00:51:54;;;;;;;2.05;0.80;;;;;;;19.56;60.87;101783.88;5044739;28;20054;-41
2022/10/27 00:54:22;;;;;;;3.63;1.10;;;;;;;19.54;60.81;101778.69;5047377;28;20033;-40
2022/10/27 00:56:50;;;;;;;2.63;1.08;;;;;;;19.55;60.84;101782.19;5044780;28;20044;-42
2022/10/27 00:59:17;;;;;;;3.70;1.25;;;;;;;19.55;60.76;101783.00;5049440;28;20036;-41
2022/10/27 01:01:43;;;;;;;2.47;1.13;;;;;;;19.55;60.80;101772.47;5040960;28;20040;-40
2022/10/27 01:04:10;;;;;;;1.25;0.75;;;;;;;19.54;60.82;101769.91;5046325;28;20071;-40
2022/10/27 01:06:36;;;;;;;1.52;0.90;;;;;;;19.55;60.90;101772.47;5045528;28;20124;-40
2022/10/27 01:09:02;;;;;;;2.20;0.80;;;;;;;19.54;60.82;101769.91;5048223;28;20043;-40
2022/10/27 01:11:27;;;;;;;2.10;0.93;;;;;;;19.53;60.72;101773.47;5063688;28;20544;-40
2022/10/27 01:13:53;;;;;;;1.73;0.90;;;;;;;19.54;60.81;101775.19;5048648;28;20029;-40
2022/10/27 01:16:27;;;;;;;3.13;0.85;;;;;;;19.54;60.68;101769.91;5045023;28;20041;-40
2022/10/27 01:19:20;;;;;;;1.88;0.85;;;;;;;19.54;60.64;101772.53;5070335;28;20404;-40
2022/10/27 01:22:08;;;;;;;2.45;1.00;;;;;;;19.53;60.61;101774.31;5046669;28;20445;-41
2022/10/27 01:24:58;;;;;;;2.00;0.80;;;;;;;19.54;60.95;101785.72;5051875;28;20140;-40
2022/10/27 01:28:11;;;;;;;1.45;0.82;;;;;;;19.53;60.83;101782.22;5042885;28;20033;-41
2022/10/27 01:31:09;;;;;;;1.88;0.93;;;;;;;19.51;60.63;101781.44;5053333;28;20837;-40
2022/10/27 01:33:41;;;;;;;2.13;0.88;;;;;;;19.53;60.69;101787.50;5050756;28;20037;-41
2022/10/27 01:36:21;;;;;;;1.38;0.90;;;;;;;19.53;60.71;101784.88;5053208;28;20364;-41
2022/10/27 01:39:09;;;;;;;1.13;0.90;;;;;;;19.53;60.63;101786.63;5048717;28;20029;-41
2022/10/27 01:41:44;;;;;;;1.33;0.80;;;;;;;19.53;60.68;101784.88;5045788;28;20793;-41
2022/10/27 01:44:31;;;;;;;1.00;0.80;;;;;;;19.53;60.69;101784.00;5045150;28;20543;-41
2022/10/27 01:46:57;;;;;;;1.15;0.90;;;;;;;19.54;60.88;101783.09;5041936;28;20048;-40
2022/10/27 01:49:23;;;;;;;1.45;0.88;;;;;;;19.54;60.61;101780.44;5047411;28;20040;-40
2022/10/27 01:51:49;;;;;;;1.73;1.10;;;;;;;19.54;60.42;101781.31;5047486;28;20083;-41
2022/10/27 01:54:17;;;;;;;2.78;1.00;;;;;;;19.53;60.47;101784.88;5041749;28;20576;-40
2022/10/27 01:57:09;;;;;;;1.52;0.90;;;;;;;19.52;60.51;101780.50;5044856;28;20033;-40
2022/10/27 02:00:00;;;;;;;1.95;0.90;;;;;;;19.52;60.76;101779.66;5047095;28;22014;-40
2022/10/27 02:02:41;;;;;;;2.15;0.80;;;;;;;19.54;60.58;101785.72;5049171;28;20112;-41
2022/10/27 02:05:16;;;;;;;1.80;0.70;;;;;;;19.52;60.48;101787.59;5049376;28;20032;-41
2022/10/27 02:08:07;;;;;;;1.52;0.82;;;;;;;19.53;60.43;101790.13;5052720;28;20036;-40
2022/10/27 02:10:40;;;;;;;1.23;0.90;;;;;;;19.52;60.61;101783.13;5048846;28;20029;-41
2022/10/27 02:13:07;;;;;;;1.10;0.95;;;;;;;19.52;60.56;101787.59;5056557;28;20037;-41
2022/10/27 02:15:41;;;;;;;0.93;0.65;;;;;;;19.50;60.62;101790.25;5049202;28;20037;-41
2022/10/27 02:18:15;;;;;;;1.33;0.80;;;;;;;19.51;60.62;101793.75;5049791;28;20045;-40
2022/10/27 02:20:44;;;;;;;2.15;0.80;;;;;;;19.49;60.58;101791.16;5045236;28;20029;-40
2022/10/27 02:23:15;;;;;;;1.67;1.05;;;;;;;19.50;60.53;101792.91;5049430;28;20036;-40
2022/10/27 02:25:49;;;;;;;1.60;0.90;;;;;;;19.51;60.56;101783.22;5053504;28;20109;-46
2022/10/27 02:28:17;;;;;;;3.78;0.98;;;;;;;19.49;60.61;101788.53;5050532;28;20044;-46
2022/10/27 02:30:43;;;;;;;2.25;0.80;;;;;;;19.50;60.66;101792.03;5047276;28;20056;-46
2022/10/27 02:33:09;;;;;;;1.27;0.70;;;;;;;19.49;60.48;101788.53;5049308;28;20056;-46
2022/10/27 02:35:35;;;;;;;1.60;0.80;;;;;;;19.51;60.66;101792.00;5053248;28;20039;-46
2022/10/27 02:38:00;;;;;;;1.15;0.70;;;;;;;19.50;60.54;101790.25;5055112;28;20036;-46
2022/10/27 02:40:26;;;;;;;1.13;0.88;;;;;;;19.49;60.44;101787.72;5051444;28;20037;-47
2022/10/27 02:42:51;;;;;;;1.67;1.00;;;;;;;19.50;60.43;101786.75;5054220;28;20101;-46
2022/10/27 02:45:17;;;;;;;2.53;1.02;;;;;;;19.50;60.19;101786.75;5053781;28;20044;-47
2022/10/27 02:47:42;;;;;;;3.28;1.00;;;;;;;19.49;60.69;101785.06;5050168;28;20117;-46
2022/10/27 02:50:08;;;;;;;1.10;0.60;;;;;;;19.49;60.64;101787.72;5051248;28;20036;-47
2022/10/27 02:52:33;;;;;;;1.15;0.90;;;;;;;19.50;60.49;101781.50;5053700;28;20041;-47
2022/10/27 02:54:58;;;;;;;1.63;0.82;;;;;;;19.50;60.49;101782.34;5051691;28;20048;-47
2022/10/27 02:57:24;;;;;;;0.75;0.70;;;;;;;19.48;60.55;101780.72;5052336;28;20036;-45
2022/10/27 02:59:49;;;;;;;0.88;0.60;;;;;;;19.47;60.51;101779.84;5051965;28;20076;-46
2022/10/27 03:02:14;;;;;;;1.33;1.08;;;;;;;19.48;60.34;101775.44;5049827;28;20043;-47
2022/10/27 03:04:40;;;;;;;1.38;0.93;;;;;;;19.48;60.63;101780.72;5050513;28;20071;-48
2022/10/27 03:07:05;;;;;;;2.25;0.80;;;;;;;19.49;60.45;101779.81;5048868;28;20043;-47
2022/10/27 03:09:31;;;;;;;1.48;0.75;;;;;;;19.48;60.41;101783.34;5047733;28;20115;-46
2022/10/27 03:11:56;;;;;;;1.27;0.77;;;;;;;19.47;60.41;101790.38;5049974;28;20044;-46
2022/10/27 03:14:21;;;;;;;3.95;0.90;;;;;;;19.47;60.47;101784.25;5045023;28;20025;-49
2022/10/27 03:16:47;;;;;;;0.90;0.60;;;;;;;19.47;60.48;101779.84;5049323;28;20386;-46
2022/10/27 03:19:12;;;;;;;1.75;0.82;;;;;;;19.46;60.46;101780.75;5045270;28;20047;-46
2022/10/27 03:21:37;;;;;;;2.13;0.85;;;;;;;19.47;60.39;101779.84;5051768;28;20040;-47
2022/10/27 03:24:03;;;;;;;1.52;0.90;;;;;;;19.47;60.40;101773.72;5046140;28;20047;-46
2022/10/27 03:26:28;;;;;;;2.30;1.00;;;;;;;19.47;60.41;101778.97;5057418;28;20040;-46
2022/10/27 03:28:54;;;;;;;3.40;1.20;;;;;;;19.48;60.30;101775.44;5044492;28;20072;-46
2022/10/27 03:31:19;;;;;;;0.85;0.75;;;;;;;19.45;60.44;101776.44;5047278;28;20147;-46
2022/10/27 03:33:44;;;;;;;0.82;0.70;;;;;;;19.46;60.36;101767.59;5049741;28;20033;-45
2022/10/27 03:36:13;;;;;;;1.00;0.90;;;;;;;19.46;60.33;101767.59;5048011;28;20033;-46
2022/10/27 03:38:38;;;;;;;2.97;1.05;;;;;;;19.46;60.45;101772.03;5049084;28;20029;-47
2022/10/27 03:41:03;;;;;;;1.48;1.08;;;;;;;19.46;60.33;101766.75;5048675;28;20040;-45
2022/10/27 03:43:29;;;;;;;1.98;0.90;;;;;;;19.47;60.37;101773.72;5052146;28;20037;-46
2022/10/27 03:45:54;;;;;;;1.38;0.63;;;;;;;19.45;60.34;101765.88;5042315;28;20041;-47
2022/10/27 03:48:19;;;;;;;1.30;0.80;;;;;;;19.46;60.25;101762.31;5053696;28;21198;-46
2022/10/27 03:50:47;;;;;;;1.23;0.73;;;;;;;19.46;60.36;101766.75;5047560;28;20071;-46
2022/10/27 03:53:13;;;;;;;2.83;0.93;;;;;;;19.45;60.41;101768.53;5051072;28;20089;-47
2022/10/27 03:55:39;;;;;;;1.90;1.00;;;;;;;19.44;60.35;101772.06;5046612;28;20171;-46
2022/10/27 03:58:04;;;;;;;1.52;0.93;;;;;;;19.45;60.40;101768.53;5047102;28;20090;-46
2022/10/27 04:00:31;;;;;;;2.67;1.13;;;;;;;19.44;60.30;101764.16;5042315;28;20037;-47
2022/10/27 04:02:57;;;;;;;0.80;0.70;;;;;;;19.45;60.44;101757.13;5045093;28;20132;-47
2022/10/27 04:05:23;;;;;;;4.45;1.17;;;;;;;19.43;60.16;101753.69;5046795;28;20033;-48
2022/10/27 04:07:48;;;;;;;1.70;0.88;;;;;;;19.40;60.16;101759.94;5052308;28;20060;-48
2022/10/27 04:10:14;;;;;;;1.90;1.00;;;;;;;19.41;60.31;101758.16;5049499;28;20120;-48
2022/10/27 04:12:50;;;;;;;1.55;0.80;;;;;;;19.40;60.25;101767.00;5047693;28;20033;-48
2022/10/27 04:15:16;;;;;;;3.60;1.00;;;;;;;19.39;60.38;101768.78;5049631;28;20059;-52
2022/10/27 04:17:42;;;;;;;3.00;1.42;;;;;;;19.46;60.19;101762.31;5053669;28;20048;-49
2022/10/27 04:20:07;;;;;;;1.55;0.93;;;;;;;19.41;60.49;101758.16;5051949;28;20090;-50
2022/10/27 04:22:33;;;;;;;4.25;1.10;;;;;;;19.39;60.61;101767.91;5050590;28;20406;-50
2022/10/27 04:24:58;;;;;;;2.30;1.27;;;;;;;19.40;60.52;101765.19;5046209;28;20110;-50
2022/10/27 04:27:23;;;;;;;1.38;0.93;;;;;;;19.39;60.60;101760.88;5046464;28;20095;-52
2022/10/27 04:29:49;;;;;;;2.83;0.80;;;;;;;19.41;60.50;101769.56;5044031;28;20050;-47
2022/10/27 04:32:14;;;;;;;1.40;1.00;;;;;;;19.42;60.43;101760.75;5043898;28;20037;-47
2022/10/27 04:34:39;;;;;;;1.73;1.20;;;;;;;19.40;60.52;101769.66;5045174;28;20060;-48
2022/10/27 04:37:05;;;;;;;2.30;1.02;;;;;;;19.37;60.55;101759.22;5049195;28;20611;-47
2022/10/27 04:39:30;;;;;;;3.08;1.10;;;;;;;19.37;60.85;101765.38;5049618;28;20028;-49
2022/10/27 04:41:56;;;;;;;1.40;0.90;;;;;;;19.38;60.60;101768.81;5045847;28;20041;-49
2022/10/27 04:44:21;;;;;;;1.15;0.70;;;;;;;19.46;60.52;101766.75;5043229;28;20102;-50
2022/10/27 04:46:46;;;;;;;2.83;1.00;;;;;;;19.43;60.48;101766.88;5043974;28;20040;-52
2022/10/27 04:49:11;;;;;;;1.85;1.13;;;;;;;19.54;60.27;101767.28;5045125;28;20058;-49
2022/10/27 04:51:37;;;;;;;6.60;1.15;;;;;;;19.56;60.20;101762.78;5043130;28;20037;-48
2022/10/27 04:54:02;;;;;;;2.30;0.90;;;;;;;19.55;60.01;101758.47;5051193;28;20044;-48
2022/10/27 04:56:28;;;;;;;2.85;0.90;;;;;;;19.59;60.02;101757.38;5047055;28;20077;-51
2022/10/27 04:58:53;;;;;;;2.28;1.13;;;;;;;19.62;60.12;101766.03;5050527;28;20468;-55
2022/10/27 05:01:19;;;;;;;2.00;1.00;;;;;;;19.66;59.86;101766.75;5046763;28;20826;-51
2022/10/27 05:03:46;;;;;;;1.83;0.90;;;;;;;19.64;60.04;101764.16;5052915;28;20159;-54
2022/10/27 05:06:12;;;;;;;1.13;0.85;;;;;;;19.68;60.07;101767.53;5051426;28;20037;-52
2022/10/27 05:08:37;;;;;;;1.27;0.90;;;;;;;19.67;59.71;101766.69;5049248;28;20035;-49
2022/10/27 05:11:03;;;;;;;2.47;1.00;;;;;;;19.65;59.62;101763.25;5054280;28;20704;-49
2022/10/27 05:13:28;;;;;;;1.58;1.00;;;;;;;19.68;59.58;101764.91;5050006;28;20582;-48
2022/10/27 05:15:59;;;;;;;3.20;1.02;;;;;;;19.63;59.90;101761.63;5049105;28;20496;-46
2022/10/27 05:18:24;;;;;;;1.33;0.70;;;;;;;19.65;59.68;101760.63;5051369;28;20044;-47
2022/10/27 05:20:50;;;;;;;1.17;0.65;;;;;;;19.62;59.89;101758.13;5053916;28;20036;-46
2022/10/27 05:23:15;;;;;;;1.35;0.98;;;;;;;19.64;59.93;101760.69;5055730;28;20085;-47
2022/10/27 05:25:40;;;;;;;1.35;0.90;;;;;;;19.62;59.85;101771.28;5046938;28;20132;-47
2022/10/27 05:28:08;;;;;;;1.30;0.85;;;;;;;19.65;59.62;101770.31;5049985;28;20413;-47
2022/10/27 05:30:34;;;;;;;1.98;0.90;;;;;;;19.70;60.05;101773.59;5045258;28;20070;-47
2022/10/27 05:33:03;;;;;;;1.63;0.98;;;;;;;19.73;59.61;101766.41;5048593;28;20033;-48
2022/10/27 05:35:29;;;;;;;1.80;1.00;;;;;;;19.87;59.98;101765.84;5053043;28;20068;-46
2022/10/27 05:37:54;;;;;;;1.90;1.10;;;;;;;20.20;60.21;101766.16;5049300;28;20144;-46
2022/10/27 05:40:20;;;;;;;2.60;0.75;;;;;;;20.25;59.68;101764.16;5048152;28;20044;-45
2022/10/27 05:42:53;;;;;;;2.47;0.77;;;;;;;20.23;59.04;101758.94;5050932;28;20044;-46
2022/10/27 05:45:19;;;;;;;1.35;0.68;;;;;;;20.18;59.54;101767.97;5053502;28;20044;-46
2022/10/27 05:47:45;;;;;;;1.30;0.70;;;;;;;20.25;59.11;101769.44;5047790;28;20127;-47
2022/10/27 05:50:11;;;;;;;1.40;0.85;;;;;;;20.16;59.54;101777.75;5049373;28;20371;-46
2022/10/27 05:52:36;;;;;;;0.80;0.60;;;;;;;20.09;59.16;101779.81;5048534;28;20037;-46
2022/10/27 05:55:01;;;;;;;4.22;0.80;;;;;;;20.08;59.48;101777.25;5050270;28;20094;-48
2022/10/27 05:57:27;;;;;;;2.30;0.73;;;;;;;20.10;59.33;101778.03;5046013;28;20047;-47
2022/10/27 05:59:52;;;;;;;2.20;0.85;;;;;;;20.09;59.44;101773.66;5047461;28;20414;-46
2022/10/27 06:02:17;;;;;;;1.75;0.80;;;;;;;20.09;59.44;101774.53;5052543;28;20041;-46
2022/10/27 06:04:43;;;;;;;1.55;0.98;;;;;;;20.08;59.45;101775.47;5049208;28;20033;-47
2022/10/27 06:07:08;;;;;;;2.15;0.98;;;;;;;20.02;59.66;101778.34;5054619;28;20052;-46
2022/10/27 06:09:34;;;;;;;1.15;0.70;;;;;;;20.07;59.66;101776.34;5047495;28;20037;-46
2022/10/27 06:11:59;;;;;;;3.03;0.90;;;;;;;20.01;59.57;101774.00;5049144;28;20056;-45
2022/10/27 06:14:24;;;;;;;2.92;0.90;;;;;;;20.02;59.27;101780.97;5049848;28;20041;-46
2022/10/27 06:16:50;;;;;;;2.03;0.90;;;;;;;20.05;59.65;101772.94;5048769;28;20115;-47
2022/10/27 06:19:15;;;;;;;2.08;1.02;;;;;;;20.00;59.47;101768.75;5052763;28;20560;-48
2022/10/27 06:21:40;;;;;;;1.85;0.70;;;;;;;19.92;59.42;101782.31;5050390;28;20548;-49
2022/10/27 06:24:06;;;;;;;1.90;0.88;;;;;;;19.94;59.80;101776.94;5058805;28;20644;-48
2022/10/27 06:26:31;;;;;;;2.83;1.33;;;;;;;20.02;60.00;101780.13;5049284;28;20560;-52
2022/10/27 06:28:56;;;;;;;2.78;1.20;;;;;;;20.02;59.82;101778.34;5050368;28;20393;-52
2022/10/27 06:31:22;;;;;;;2.10;1.00;;;;;;;20.08;59.61;101775.47;5052492;28;20032;-49
2022/10/27 06:33:47;;;;;;;4.25;1.10;;;;;;;20.03;60.16;101776.53;5071711;28;20035;-49
2022/10/27 06:36:13;;;;;;;7.53;1.05;;;;;;;20.01;59.87;101787.19;5052716;28;20041;-41
2022/10/27 06:38:38;;;;;;;1.75;1.00;;;;;;;20.00;60.41;101790.72;5050626;28;20074;-39
2022/10/27 06:41:04;;;;;;;2.47;0.90;;;;;;;20.06;59.79;101794.88;5051843;28;20086;-41
2022/10/27 06:43:29;;;;;;;4.53;1.08;;;;;;;20.00;60.16;101790.72;5054611;28;20041;-40
2022/10/27 06:45:55;;;;;;;9.88;1.80;;;;;;;19.99;59.95;101794.31;5046887;28;20045;-40
2022/10/27 06:48:20;;;;;;;5.07;1.38;;;;;;;20.06;60.42;101801.00;5043566;28;20047;-41
2022/10/27 06:50:45;;;;;;;3.92;1.20;;;;;;;19.92;59.51;101800.75;5052049;28;20075;-39
2022/10/27 06:53:11;;;;;;;5.47;1.00;;;;;;;20.01;59.24;101791.59;5049125;28;20037;-42
2022/10/27 06:55:36;;;;;;;3.65;1.10;;;;;;;19.92;59.75;101787.56;5053426;28;20047;-42
2022/10/27 06:58:02;;;;;;;5.82;1.20;;;;;;;19.82;59.54;101791.53;5045897;28;20060;-43
2022/10/27 07:00:27;;;;;;;2.65;0.90;;;;;;;19.82;59.92;101801.25;5044703;28;20896;-42
2022/10/27 07:02:53;;;;;;;3.90;1.20;;;;;;;19.83;59.71;101795.88;5048273;28;20106;-43
2022/10/27 07:05:18;;;;;;;3.03;1.00;;;;;;;19.80;59.64;101793.38;5050256;28;20040;-44
2022/10/27 07:07:48;;;;;;;4.35;1.10;;;;;;;19.80;59.67;101798.66;5044729;28;20046;-43
2022/10/27 07:10:14;;;;;;;6.38;1.45;;;;;;;19.80;60.23;101801.28;5042656;28;20037;-43
2022/10/27 07:12:52;;;;;;;5.25;1.50;;;;;;;19.84;59.55;101796.75;5046108;28;20041;-44
2022/10/27 07:15:18;;;;;;;2.67;1.00;;;;;;;19.77;59.65;101783.81;5041418;28;20070;-43
2022/10/27 07:17:43;;;;;;;1.98;1.15;;;;;;;19.75;59.66;101788.31;5043917;28;20068;-44
2022/10/27 07:20:09;;;;;;;2.05;1.05;;;;;;;19.77;60.58;101786.47;5051710;28;20115;-43
2022/10/27 07:22:34;;;;;;;2.05;1.13;;;;;;;19.74;59.94;101786.59;5045995;28;20075;-43
2022/10/27 07:24:59;;;;;;;3.28;1.17;;;;;;;19.75;59.70;101785.69;5048141;28;20130;-44
2022/10/27 07:27:25;;;;;;;2.25;1.20;;;;;;;19.75;60.01;101790.09;5051485;28;20067;-45
2022/10/27 07:29:50;;;;;;;1.58;1.05;;;;;;;19.72;59.80;101791.09;5048287;28;20624;-43
2022/10/27 07:32:15;;;;;;;3.35;0.98;;;;;;;19.75;59.92;101796.22;5046192;28;20144;-44
2022/10/27 07:34:41;;;;;;;4.45;1.17;;;;;;;19.75;60.02;101788.31;5046779;28;20645;-42
2022/10/27 07:37:06;;;;;;;3.05;0.90;;;;;;;19.76;60.73;101784.72;5045295;28;20686;-40
2022/10/27 07:39:31;;;;;;;1.60;0.98;;;;;;;19.84;60.60;101783.56;5047065;28;20037;-39
2022/10/27 07:41:57;;;;;;;2.60;1.08;;;;;;;19.80;60.41;101774.91;5054692;28;20059;-39
2022/10/27 07:44:23;;;;;;;1.77;0.90;;;;;;;19.80;60.48;101782.84;5052190;28;20016;-43
2022/10/27 07:46:48;;;;;;;1.92;1.23;;;;;;;19.78;59.73;101779.41;5050936;28;20021;-42
2022/10/27 07:49:13;;;;;;;2.60;1.00;;;;;;;19.77;59.76;101777.69;5043836;28;20511;-42
2022/10/27 07:51:39;;;;;;;2.20;0.75;;;;;;;19.80;59.95;101777.56;5048080;28;20115;-42
2022/10/27 07:54:04;;;;;;;2.22;0.98;;;;;;;19.79;59.53;101781.09;5046676;28;20157;-42
2022/10/27 07:56:31;;;;;;;2.40;0.85;;;;;;;19.79;59.62;101781.97;5044518;28;20124;-42
2022/10/27 07:58:57;;;;;;;2.03;1.08;;;;;;;19.80;60.25;101777.56;5045708;28;20091;-42
2022/10/27 08:01:22;;;;;;;2.75;0.85;;;;;;;19.85;59.54;101777.38;5043530;28;20439;-41
2022/10/27 08:03:48;;;;;;;1.38;0.88;;;;;;;19.89;60.23;101773.66;5044538;28;20033;-42
2022/10/27 08:06:14;;;;;;;2.08;1.00;;;;;;;19.80;59.52;101770.50;5042446;28;20102;-41
2022/10/27 08:08:39;;;;;;;1.15;0.82;;;;;;;19.86;59.59;101772.03;5042137;28;20050;-42
2022/10/27 08:11:05;;;;;;;2.58;0.88;;;;;;;19.86;59.56;101771.16;5042820;28;20032;-42
2022/10/27 08:13:30;;;;;;;2.47;1.55;;;;;;;19.90;60.00;101776.25;5043981;28;20053;-42
2022/10/27 08:15:58;;;;;;;3.10;1.15;;;;;;;19.96;59.43;101767.22;5041979;28;20056;-41
2022/10/27 08:18:24;;;;;;;1.25;0.85;;;;;;;19.94;59.53;101767.25;5041315;28;20048;-43
2022/10/27 08:20:49;;;;;;;4.20;1.45;;;;;;;19.94;59.81;101766.38;5041382;28;20099;-44
2022/10/27 08:23:16;;;;;;;2.25;1.23;;;;;;;19.91;60.12;101767.38;5042229;28;20036;-43
2022/10/27 08:25:43;;;;;;;1.30;0.70;;;;;;;19.89;59.24;101766.59;5043727;28;20089;-45
2022/10/27 08:28:10;;;;;;;2.22;0.82;;;;;;;19.88;59.26;101774.59;5043412;28;20044;-40
2022/10/27 08:30:36;;;;;;;1.48;0.93;;;;;;;19.88;59.30;101774.59;5038508;28;20033;-41
2022/10/27 08:33:03;;;;;;;2.35;0.68;;;;;;;19.92;59.26;101777.03;5042765;28;20166;-39
2022/10/27 08:35:30;;;;;;;2.03;1.27;;;;;;;19.93;59.67;101773.47;5044536;28;20544;-44
2022/10/27 08:38:00;;;;;;;3.53;0.90;;;;;;;19.96;59.47;101777.75;5042512;28;20043;-43
2022/10/27 08:40:42;;;;;;;1.50;0.65;;;;;;;19.89;59.22;101771.88;5044749;28;20505;-43
2022/10/27 08:43:25;;;;;;;1.52;0.90;;;;;;;19.94;59.46;101779.56;5042540;28;20041;-44
2022/10/27 08:46:25;;;;;;;3.83;1.10;;;;;;;19.93;59.98;101767.34;5041557;28;20072;-43
2022/10/27 08:48:54;;;;;;;3.60;0.90;;;;;;;19.99;59.33;101770.56;5031324;28;20051;-39
2022/10/27 08:51:21;;;;;;;5.63;1.23;;;;;;;20.02;59.43;101757.25;5039426;28;20044;-42
2022/10/27 08:53:52;;;;;;;3.35;1.00;;;;;;;19.93;59.71;101762.94;5041576;28;20784;-41
2022/10/27 08:56:20;;;;;;;2.85;1.08;;;;;;;19.93;59.55;101756.78;5042580;28;20114;-40
2022/10/27 08:58:47;;;;;;;2.70;0.95;;;;;;;20.09;59.64;101761.34;5042381;28;20412;-41
2022/10/27 09:01:24;;;;;;;7.88;1.20;;;;;;;20.07;59.75;101760.53;5041533;28;20563;-41
2022/10/27 09:03:59;;;;;;;5.03;1.45;;;;;;;20.08;59.92;101762.28;5042880;28;20565;-41
2022/10/27 09:06:32;;;;;;;3.67;1.05;;;;;;;20.12;60.34;101757.69;5042669;28;20041;-41
2022/10/27 09:09:35;;;;;;;5.25;1.10;;;;;;;20.10;60.15;101759.56;5042957;28;20047;-41
2022/10/27 09:12:14;;;;;;;7.05;1.55;;;;;;;20.07;59.84;101757.03;5045002;28;20144;-41
2022/10/27 09:15:19;;;;;;;4.25;1.35;;;;;;;20.06;59.84;101747.38;5042305;28;20031;-41
2022/10/27 09:17:47;;;;;;;1.73;1.23;;;;;;;20.07;59.80;101743.84;5041639;28;20127;-42
2022/10/27 09:20:26;;;;;;;2.35;0.80;;;;;;;20.07;59.80;101743.84;5041296;28;20286;-41
2022/10/27 09:22:54;;;;;;;5.82;1.33;;;;;;;20.06;59.67;101735.06;5042627;28;20053;-42
2022/10/27 09:25:21;;;;;;;2.92;1.13;;;;;;;20.07;59.52;101730.66;5042781;28;21238;-41
2022/10/27 09:27:52;;;;;;;5.72;1.40;;;;;;;20.05;59.65;101732.50;5039680;28;20779;-41
2022/10/27 09:30:18;;;;;;;5.07;1.55;;;;;;;20.04;59.64;101723.72;5040595;28;20051;-41
2022/10/27 09:32:52;;;;;;;5.50;1.10;;;;;;;20.05;59.54;101721.97;5041872;28;20067;-42
2022/10/27 09:35:23;;;;;;;5.78;1.13;;;;;;;20.06;59.58;101715.72;5042019;28;20102;-42
2022/10/27 09:37:49;;;;;;;3.83;1.02;;;;;;;20.05;59.33;101711.41;5043996;28;20045;-42
2022/10/27 09:40:19;;;;;;;3.03;1.15;;;;;;;20.10;59.77;101710.31;5046787;28;20086;-43
2022/10/27 09:42:47;;;;;;;3.00;0.90;;;;;;;20.10;59.57;101712.94;5046538;28;20197;-42
2022/10/27 09:45:16;;;;;;;5.03;1.35;;;;;;;20.08;59.61;101709.53;5046761;28;20044;-41
2022/10/27 09:47:45;;;;;;;3.70;1.27;;;;;;;20.09;59.53;101703.31;5043746;28;20036;-41
2022/10/27 09:50:37;;;;;;;3.13;1.20;;;;;;;20.10;59.49;101704.16;5045457;28;20421;-42
2022/10/27 09:53:03;;;;;;;3.45;0.90;;;;;;;20.13;59.60;101696.97;5038787;28;20044;-41
2022/10/27 09:55:51;;;;;;;1.95;1.08;;;;;;;20.16;59.72;101695.97;5049194;28;20037;-43
2022/10/27 09:58:18;;;;;;;3.15;0.95;;;;;;;20.20;59.32;101698.38;5045716;28;20108;-41
2022/10/27 10:00:43;;;;;;;4.30;1.00;;;;;;;20.28;60.08;101701.53;5043632;28;20048;-41
2022/10/27 10:03:20;;;;;;;6.00;1.05;;;;;;;20.30;60.20;101697.03;5042727;28;20044;-41
2022/10/27 10:05:57;;;;;;;3.90;1.00;;;;;;;20.35;60.43;101696.84;5046314;28;20124;-40
2022/10/27 10:08:25;;;;;;;7.35;1.33;;;;;;;20.34;60.14;101693.34;5048971;28;20059;-41
2022/10/27 10:11:01;;;;;;;2.40;1.00;;;;;;;20.38;60.21;101693.19;5050311;28;20027;-41
2022/10/27 10:13:29;;;;;;;2.67;0.80;;;;;;;20.42;60.62;101692.97;5046849;28;20041;-41
2022/10/27 10:16:08;;;;;;;4.45;1.17;;;;;;;20.45;60.40;101692.81;5044769;28;20080;-41
2022/10/27 10:18:34;;;;;;;3.15;1.02;;;;;;;20.39;60.50;101689.63;5047170;28;20773;-41
2022/10/27 10:21:07;;;;;;;4.38;1.00;;;;;;;20.40;60.23;101683.41;5046403;28;20605;-42
2022/10/27 10:23:35;;;;;;;4.57;1.58;;;;;;;20.45;60.24;101689.31;5045755;28;20095;-41
2022/10/27 10:26:04;;;;;;;4.22;1.20;;;;;;;20.44;60.14;101690.28;5044697;28;20151;-40
2022/10/27 10:28:34;;;;;;;3.60;0.77;;;;;;;20.47;60.34;101690.94;5043070;28;20036;-41
2022/10/27 10:31:03;;;;;;;1.75;1.00;;;;;;;20.44;60.33;101687.63;5042871;28;20041;-42
2022/10/27 10:33:34;;;;;;;3.03;0.93;;;;;;;20.43;60.05;101691.19;5044409;28;20064;-41
2022/10/27 10:36:02;;;;;;;3.42;1.00;;;;;;;20.46;60.05;101684.00;5046116;28;20040;-40
2022/10/27 10:38:35;;;;;;;4.68;1.00;;;;;;;20.49;60.27;101677.69;5045475;28;20056;-40
2022/10/27 10:41:12;;;;;;;2.42;0.82;;;;;;;20.50;60.07;101682.88;5045182;28;20127;-41
2022/10/27 10:43:39;;;;;;;2.42;1.00;;;;;;;20.50;60.26;101680.25;5044690;28;20029;-39
2022/10/27 10:46:15;;;;;;;1.30;0.88;;;;;;;20.56;59.97;101671.22;5042734;28;20936;-38
2022/10/27 10:48:46;;;;;;;1.80;0.93;;;;;;;20.49;60.03;101667.16;5045070;28;20033;-38
2022/10/27 10:51:22;;;;;;;1.88;1.17;;;;;;;20.47;59.96;101663.72;5043596;28;20060;-38
2022/10/27 10:53:50;;;;;;;2.47;0.85;;;;;;;20.53;59.97;101666.09;5044663;28;20056;-38
2022/10/27 10:56:34;;;;;;;4.13;1.05;;;;;;;20.57;59.86;101667.63;5045254;28;20041;-39
2022/10/27 10:59:11;;;;;;;2.95;1.00;;;;;;;20.56;59.86;101658.84;5045179;28;20628;-44
2022/10/27 11:01:43;;;;;;;2.55;1.63;;;;;;;20.58;59.45;101656.16;5044004;28;20072;-45
2022/10/27 11:04:12;;;;;;;4.20;1.15;;;;;;;20.57;59.83;101647.38;5045541;28;20102;-44
2022/10/27 11:06:38;;;;;;;4.32;0.80;;;;;;;20.51;59.56;101636.25;5046723;28;20095;-46
2022/10/27 11:09:03;;;;;;;3.45;1.00;;;;;;;20.51;59.77;101633.59;5045161;28;20553;-45
2022/10/27 11:11:35;;;;;;;5.00;1.30;;;;;;;20.53;59.44;101642.31;5044541;28;20116;-45
2022/10/27 11:14:10;;;;;;;1.42;0.80;;;;;;;20.47;59.77;101639.97;5045567;28;20033;-49
2022/10/27 11:16:41;;;;;;;1.95;0.93;;;;;;;20.50;59.32;101632.75;5046304;28;20776;-45
2022/10/27 11:19:14;;;;;;;4.03;1.00;;;;;;;20.52;59.78;101630.91;5049516;28;20036;-45
2022/10/27 11:21:45;;;;;;;3.45;0.90;;;;;;;20.55;59.97;101632.53;5047845;28;20033;-43
2022/10/27 11:24:19;;;;;;;16.55;7.53;;;;;;;20.57;59.88;101628.03;5048390;28;20044;-49
2022/10/27 11:27:04;;;;;;;12.20;4.40;;;;;;;20.52;59.57;101630.91;5044494;28;20040;-47
2022/10/27 11:29:49;;;;;;;11.90;4.68;;;;;;;20.45;59.60;101626.84;5049238;28;20356;-45
2022/10/27 11:32:21;;;;;;;8.95;2.97;;;;;;;20.41;59.61;101613.88;5047602;28;20045;-45
2022/10/27 11:35:03;;;;;;;7.45;2.80;;;;;;;20.39;59.52;101613.94;5045990;28;20045;-44